createdAt,value
2019-04-25T00:01:57.995Z,44.70
2019-04-25T00:04:48.980Z,44.60
2019-04-25T00:07:41.806Z,44.40
2019-04-25T00:10:31.879Z,44.30
2019-04-25T00:13:22.727Z,44.30
2019-04-25T00:16:14.523Z,44.30
2019-04-25T00:19:06.456Z,44.20
2019-04-25T00:22:11.821Z,44.10
2019-04-25T00:25:36.494Z,44.30
2019-04-25T00:28:27.936Z,44.20
2019-04-25T00:31:19.150Z,44.30
2019-04-25T00:34:12.095Z,44.20
2019-04-25T00:37:03.970Z,44.30
2019-04-25T00:39:54.489Z,44.40
2019-04-25T00:42:44.931Z,44.50
2019-04-25T00:45:35.848Z,44.70
2019-04-25T00:48:26.563Z,44.80
2019-04-25T00:51:17.894Z,44.80
2019-04-25T00:54:09.157Z,44.60
2019-04-25T00:57:00.112Z,44.60
2019-04-25T00:59:56.425Z,44.70
2019-04-25T01:02:49.442Z,44.20
2019-04-25T01:05:42.375Z,44.50
2019-04-25T01:08:33.326Z,44.70
2019-04-25T01:11:24.335Z,44.70
2019-04-25T01:14:15.290Z,45.00
2019-04-25T01:17:06.307Z,45.00
2019-04-25T01:19:58.079Z,44.90
2019-04-25T01:22:49.328Z,44.80
2019-04-25T01:25:44.284Z,44.70
2019-04-25T01:28:35.538Z,44.60
2019-04-25T01:31:29.225Z,44.70
2019-04-25T01:34:25.812Z,44.60
2019-04-25T01:37:35.404Z,44.70
2019-04-25T01:40:36.961Z,44.90
2019-04-25T01:43:37.033Z,44.90
2019-04-25T01:46:29.005Z,44.90
2019-04-25T01:49:20.218Z,44.90
2019-04-25T01:52:10.372Z,44.80
2019-04-25T01:55:01.537Z,44.70
2019-04-25T01:57:54.603Z,44.90
2019-04-25T02:00:48.309Z,44.90
2019-04-25T02:03:39.071Z,45.00
2019-04-25T02:06:30.135Z,44.90
2019-04-25T02:09:20.880Z,45.10
2019-04-25T02:12:24.691Z,45.10
2019-04-25T02:15:16.562Z,45.20
2019-04-25T02:18:08.783Z,45.00
2019-04-25T02:21:00.546Z,45.00
2019-04-25T02:23:51.623Z,45.00
2019-04-25T02:26:43.890Z,45.80
2019-04-25T02:29:33.947Z,45.90
2019-04-25T02:32:24.988Z,45.10
2019-04-25T02:35:16.247Z,45.00
2019-04-25T02:38:08.798Z,45.10
2019-04-25T02:41:00.593Z,45.20
2019-04-25T02:43:50.673Z,45.10
2019-04-25T02:47:14.674Z,45.10
2019-04-25T02:50:15.356Z,45.20
2019-04-25T02:53:30.736Z,45.10
2019-04-25T02:56:33.187Z,45.20
2019-04-25T02:59:14.928Z,45.10
2019-04-25T03:02:08.746Z,45.20
2019-04-25T03:04:59.605Z,45.20
2019-04-25T03:07:54.271Z,45.30
2019-04-25T03:10:44.483Z,45.40
2019-04-25T03:13:36.001Z,45.60
2019-04-25T03:16:27.217Z,46.20
2019-04-25T03:19:39.859Z,45.40
2019-04-25T03:22:31.013Z,45.50
2019-04-25T03:25:24.623Z,45.70
2019-04-25T03:28:15.614Z,45.70
2019-04-25T03:31:13.022Z,45.60
2019-04-25T03:34:02.212Z,45.50
2019-04-25T03:36:51.487Z,45.60
2019-04-25T03:39:43.555Z,45.60
2019-04-25T03:42:34.840Z,45.70
2019-04-25T03:45:26.170Z,45.60
2019-04-25T03:48:17.540Z,45.50
2019-04-25T03:51:08.458Z,45.50
2019-04-25T03:53:59.618Z,45.50
2019-04-25T03:56:54.339Z,45.60
2019-04-25T03:59:43.762Z,45.70
2019-04-25T04:02:35.215Z,45.70
2019-04-25T04:05:26.258Z,45.80
2019-04-25T04:08:18.311Z,45.40
2019-04-25T04:11:08.730Z,45.40
2019-04-25T04:13:59.879Z,45.40
2019-04-25T04:17:28.053Z,45.60
2019-04-25T04:20:33.498Z,45.70
2019-04-25T04:23:30.193Z,45.50
2019-04-25T04:26:23.193Z,45.40
2019-04-25T04:29:15.310Z,45.40
2019-04-25T04:32:06.983Z,45.80
2019-04-25T04:34:57.972Z,45.80
2019-04-25T04:37:48.756Z,45.70
2019-04-25T04:40:38.990Z,45.70
2019-04-25T04:43:29.953Z,45.80
2019-04-25T04:46:20.795Z,45.60
2019-04-25T04:49:14.165Z,45.40
2019-04-25T04:52:06.488Z,45.50
2019-04-25T04:55:05.248Z,45.50
2019-04-25T04:57:49.869Z,45.60
2019-04-25T05:00:41.447Z,45.60
2019-04-25T05:04:00.769Z,45.70
2019-04-25T05:06:59.702Z,45.60
2019-04-25T05:09:50.840Z,45.80
2019-04-25T05:12:43.358Z,45.80
2019-04-25T05:15:34.844Z,45.90
2019-04-25T05:18:36.593Z,46.00
2019-04-25T05:21:18.255Z,45.80
2019-04-25T05:24:09.604Z,46.50
2019-04-25T05:26:59.810Z,46.00
2019-04-25T05:29:50.698Z,46.20
2019-04-25T05:32:41.503Z,45.90
2019-04-25T05:35:33.248Z,45.60
2019-04-25T05:38:25.205Z,45.60
2019-04-25T05:41:26.644Z,45.60
2019-04-25T05:44:17.217Z,45.50
2019-04-25T05:47:08.184Z,45.70
2019-04-25T05:49:59.495Z,45.20
2019-04-25T05:52:50.487Z,45.50
2019-04-25T05:55:41.746Z,45.50
2019-04-25T05:58:33.618Z,45.60
2019-04-25T06:01:27.604Z,45.90
2019-04-25T06:04:17.977Z,45.70
2019-04-25T06:07:08.742Z,45.90
2019-04-25T06:10:27.835Z,45.50
2019-04-25T06:13:27.892Z,45.40
2019-04-25T06:16:28.598Z,44.90
2019-04-25T06:19:40.662Z,45.00
2019-04-25T06:23:08.344Z,44.50
2019-04-25T06:25:58.752Z,44.30
2019-04-25T06:28:56.898Z,44.30
2019-04-25T06:31:43.784Z,44.20
2019-04-25T06:34:36.481Z,44.10
2019-04-25T06:37:27.778Z,43.90
2019-04-25T06:40:18.302Z,43.80
2019-04-25T06:43:08.847Z,44.00
2019-04-25T06:46:36.419Z,44.10
2019-04-25T06:49:29.868Z,44.00
2019-04-25T06:52:29.435Z,43.80
2019-04-25T06:55:17.604Z,43.80
2019-04-25T06:58:11.662Z,43.40
2019-04-25T07:01:01.117Z,43.60
2019-04-25T07:03:53.893Z,43.30
2019-04-25T07:06:45.485Z,42.90
2019-04-25T07:09:36.915Z,43.50
2019-04-25T07:12:31.237Z,43.80
2019-04-25T07:15:20.877Z,43.90
2019-04-25T07:18:13.881Z,44.10
2019-04-25T07:21:05.300Z,44.10
2019-04-25T07:23:56.647Z,44.00
2019-04-25T07:27:01.462Z,44.20
2019-04-25T07:30:10.279Z,43.80
2019-04-25T07:33:18.957Z,44.10
2019-04-25T07:36:10.015Z,44.40
2019-04-25T07:39:08.222Z,44.00
2019-04-25T07:41:54.713Z,43.90
2019-04-25T07:44:51.673Z,43.60
2019-04-25T07:47:37.711Z,43.30
2019-04-25T07:50:29.070Z,44.30
2019-04-25T07:53:19.735Z,43.60
2019-04-25T07:56:11.191Z,43.20
2019-04-25T07:59:01.741Z,42.90
2019-04-25T08:01:53.646Z,42.20
2019-04-25T08:04:44.629Z,42.40
2019-04-25T08:07:36.304Z,42.00
2019-04-25T08:10:29.985Z,42.60
2019-04-25T08:13:23.384Z,42.30
2019-04-25T08:16:15.587Z,41.80
2019-04-25T08:19:06.809Z,41.40
2019-04-25T08:21:58.273Z,42.20
2019-04-25T08:24:49.174Z,41.10
2019-04-25T08:27:40.262Z,41.00
2019-04-25T08:30:31.403Z,40.60
2019-04-25T08:33:23.662Z,40.40
2019-04-25T08:36:14.807Z,40.40
2019-04-25T08:39:07.538Z,40.50
2019-04-25T08:41:58.974Z,40.30
2019-04-25T08:44:49.975Z,41.50
2019-04-25T08:47:40.127Z,40.90
2019-04-25T08:50:39.298Z,39.70
2019-04-25T08:53:35.399Z,39.80
2019-04-25T08:56:31.871Z,39.20
2019-04-25T08:59:47.174Z,38.70
2019-04-25T09:02:59.576Z,37.70
2019-04-25T09:05:51.353Z,38.70
2019-04-25T09:08:45.364Z,37.40
2019-04-25T09:11:36.665Z,37.20
2019-04-25T09:14:26.897Z,37.20
2019-04-25T09:17:16.992Z,36.70
2019-04-25T09:20:07.189Z,37.00
2019-04-25T09:22:57.379Z,36.50
2019-04-25T09:25:47.725Z,35.80
2019-04-25T09:28:40.583Z,35.70
2019-04-25T09:31:30.896Z,36.30
2019-04-25T09:34:21.838Z,35.00
2019-04-25T09:37:14.245Z,35.50
2019-04-25T09:40:10.119Z,34.70
2019-04-25T09:43:00.657Z,34.30
2019-04-25T09:46:14.948Z,34.10
2019-04-25T09:49:21.011Z,33.80
2019-04-25T09:52:15.066Z,33.50
2019-04-25T09:55:28.410Z,32.90
2019-04-25T09:58:44.626Z,32.30
2019-04-25T10:01:36.380Z,32.40
2019-04-25T10:04:28.051Z,32.20
2019-04-25T10:07:19.074Z,32.30
2019-04-25T10:10:10.198Z,31.70
2019-04-25T10:13:03.956Z,32.50
2019-04-25T10:16:06.897Z,32.50
2019-04-25T10:18:57.589Z,32.20
2019-04-25T10:21:48.132Z,32.20
2019-04-25T10:24:39.740Z,32.10
2019-04-25T10:27:30.195Z,31.30
2019-04-25T10:30:23.758Z,31.80
2019-04-25T10:33:14.385Z,32.50
2019-04-25T10:36:05.620Z,31.80
2019-04-25T10:39:07.249Z,31.50
2019-04-25T10:41:48.340Z,33.60
2019-04-25T10:44:40.431Z,32.20
2019-04-25T10:47:31.178Z,32.50
2019-04-25T10:50:23.834Z,32.40
2019-04-25T10:53:16.061Z,32.20
2019-04-25T10:56:07.313Z,31.60
2019-04-25T10:58:58.441Z,32.20
2019-04-25T11:01:48.955Z,32.00
2019-04-25T11:04:47.184Z,31.90
2019-04-25T11:07:36.393Z,31.80
2019-04-25T11:10:27.241Z,32.20
2019-04-25T11:13:18.150Z,32.80
2019-04-25T11:16:10.129Z,32.20
2019-04-25T11:19:00.409Z,32.20
2019-04-25T11:21:51.774Z,33.40
2019-04-25T11:24:43.786Z,32.90
2019-04-25T11:27:34.857Z,32.00
2019-04-25T11:30:27.506Z,32.30
2019-04-25T11:33:18.658Z,31.50
2019-04-25T11:36:08.991Z,31.80
2019-04-25T11:39:21.982Z,32.50
2019-04-25T11:42:16.272Z,31.50
2019-04-25T11:45:07.857Z,31.40
2019-04-25T11:47:58.882Z,31.20
2019-04-25T11:50:51.265Z,32.10
2019-04-25T11:53:44.037Z,32.00
2019-04-25T11:56:34.561Z,32.30
2019-04-25T11:59:25.060Z,31.80
2019-04-25T12:02:15.312Z,32.00
2019-04-25T12:05:06.509Z,32.00
2019-04-25T12:07:57.684Z,32.00
2019-04-25T12:10:48.292Z,31.60
2019-04-25T12:13:39.362Z,32.00
2019-04-25T12:16:29.926Z,31.30
2019-04-25T12:19:34.331Z,30.60
2019-04-25T12:22:13.579Z,30.90
2019-04-25T12:25:04.843Z,31.90
2019-04-25T12:27:55.748Z,31.00
2019-04-25T12:30:47.333Z,31.10
2019-04-25T12:33:38.393Z,31.10
2019-04-25T12:36:28.853Z,31.20
2019-04-25T12:39:21.003Z,31.10
2019-04-25T12:42:11.771Z,31.10
2019-04-25T12:45:17.764Z,30.90
2019-04-25T12:48:08.856Z,31.30
2019-04-25T12:50:59.495Z,32.10
2019-04-25T12:53:51.360Z,32.70
2019-04-25T12:56:43.240Z,31.30
2019-04-25T12:59:34.963Z,31.80
2019-04-25T13:02:26.548Z,31.70
2019-04-25T13:05:17.476Z,31.10
2019-04-25T13:08:08.629Z,31.20
2019-04-25T13:11:07.824Z,31.20
2019-04-25T13:13:51.519Z,30.20
2019-04-25T13:16:44.270Z,30.00
2019-04-25T13:19:35.768Z,30.30
2019-04-25T13:22:27.225Z,30.10
2019-04-25T13:25:20.152Z,30.40
2019-04-25T13:28:34.134Z,30.40
2019-04-25T13:31:44.510Z,31.70
2019-04-25T13:34:37.934Z,31.00
2019-04-25T13:37:28.043Z,29.90
2019-04-25T13:40:18.801Z,30.00
2019-04-25T13:43:09.486Z,30.00
2019-04-25T13:45:59.932Z,30.00
2019-04-25T13:48:51.034Z,29.90
2019-04-25T13:51:41.227Z,30.30
2019-04-25T13:54:33.830Z,30.30
2019-04-25T13:57:26.193Z,29.60
2019-04-25T14:00:18.720Z,30.00
2019-04-25T14:03:09.226Z,30.70
2019-04-25T14:06:00.633Z,30.30
2019-04-25T14:08:53.300Z,30.20
2019-04-25T14:11:45.726Z,29.80
2019-04-25T14:14:39.998Z,30.00
2019-04-25T14:17:45.783Z,30.50
2019-04-25T14:20:40.012Z,30.20
2019-04-25T14:23:31.267Z,30.20
2019-04-25T14:26:22.906Z,29.80
2019-04-25T14:29:14.146Z,29.50
2019-04-25T14:32:07.783Z,30.80
2019-04-25T14:34:57.986Z,29.80
2019-04-25T14:37:48.172Z,29.30
2019-04-25T14:40:38.454Z,29.00
2019-04-25T14:43:29.517Z,29.80
2019-04-25T14:46:21.027Z,29.80
2019-04-25T14:49:12.687Z,29.30
2019-04-25T14:52:04.163Z,28.80
2019-04-25T14:55:08.244Z,29.30
2019-04-25T14:57:59.094Z,29.30
2019-04-25T15:00:51.372Z,28.80
2019-04-25T15:03:41.731Z,29.10
2019-04-25T15:06:32.898Z,28.40
2019-04-25T15:09:24.600Z,28.50
2019-04-25T15:12:15.695Z,29.00
2019-04-25T15:15:06.615Z,28.70
2019-04-25T15:17:57.876Z,28.20
2019-04-25T15:20:48.272Z,28.90
2019-04-25T15:23:38.643Z,29.00
2019-04-25T15:26:29.749Z,28.70
2019-04-25T15:29:20.199Z,29.60
2019-04-25T15:32:13.814Z,30.00
2019-04-25T15:35:05.249Z,29.20
2019-04-25T15:38:02.128Z,30.00
2019-04-25T15:40:59.864Z,28.90
2019-04-25T15:44:09.900Z,29.10
2019-04-25T15:47:02.142Z,29.90
2019-04-25T15:49:54.524Z,29.30
2019-04-25T15:52:45.140Z,29.60
2019-04-25T15:55:36.608Z,29.00
2019-04-25T15:58:28.046Z,28.60
2019-04-25T16:01:18.724Z,29.10
2019-04-25T16:04:09.379Z,28.80
2019-04-25T16:07:00.002Z,28.90
2019-04-25T16:09:51.188Z,28.60
2019-04-25T16:12:42.103Z,29.00
2019-04-25T16:15:33.225Z,28.70
2019-04-25T16:18:23.930Z,28.30
2019-04-25T16:21:14.277Z,27.90
2019-04-25T16:24:06.225Z,27.80
2019-04-25T16:26:57.267Z,27.70
2019-04-25T16:29:48.283Z,27.40
2019-04-25T16:32:38.810Z,26.90
2019-04-25T16:35:31.139Z,27.20
2019-04-25T16:38:22.219Z,27.10
2019-04-25T16:41:13.228Z,27.00
2019-04-25T16:44:08.079Z,27.00
2019-04-25T16:47:00.491Z,27.20
2019-04-25T16:49:51.183Z,27.10
2019-04-25T16:52:42.663Z,27.20
2019-04-25T16:55:34.284Z,26.80
2019-04-25T16:58:25.433Z,26.80
2019-04-25T17:01:15.786Z,27.10
2019-04-25T17:04:06.060Z,27.30
2019-04-25T17:06:57.605Z,26.90
2019-04-25T17:09:49.149Z,27.20
2019-04-25T17:12:40.800Z,27.10
2019-04-25T17:15:57.260Z,27.20
2019-04-25T17:18:58.125Z,27.10
2019-04-25T17:21:49.206Z,27.40
2019-04-25T17:24:41.235Z,27.50
2019-04-25T17:27:33.010Z,27.60
2019-04-25T17:30:24.058Z,28.40
2019-04-25T17:33:29.133Z,29.80
2019-04-25T17:36:29.059Z,30.90
2019-04-25T17:39:33.454Z,30.80
2019-04-25T17:42:24.775Z,31.40
2019-04-25T17:45:20.214Z,31.50
2019-04-25T17:48:10.577Z,31.70
2019-04-25T17:51:00.871Z,31.80
2019-04-25T17:53:51.915Z,31.90
2019-04-25T17:56:44.230Z,32.10
2019-04-25T17:59:35.572Z,32.10
2019-04-25T18:02:26.085Z,32.40
2019-04-25T18:05:16.964Z,33.20
2019-04-25T18:08:08.207Z,32.70
2019-04-25T18:10:59.624Z,32.70
2019-04-25T18:13:50.805Z,33.00
2019-04-25T18:16:45.067Z,33.20
2019-04-25T18:19:40.929Z,33.20
2019-04-25T18:22:50.345Z,33.20
2019-04-25T18:25:58.497Z,33.30
2019-04-25T18:28:55.513Z,33.30
2019-04-25T18:31:46.427Z,33.50
2019-04-25T18:34:52.283Z,33.50
2019-04-25T18:37:53.244Z,33.80
2019-04-25T18:40:58.178Z,33.90
2019-04-25T18:43:51.873Z,34.10
2019-04-25T18:46:45.077Z,34.20
2019-04-25T18:49:36.406Z,34.30
2019-04-25T18:53:00.083Z,34.40
2019-04-25T18:55:57.489Z,34.70
2019-04-25T18:59:03.157Z,34.60
2019-04-25T19:02:21.680Z,34.60
2019-04-25T19:05:29.692Z,34.60
2019-04-25T19:08:21.180Z,34.60
2019-04-25T19:11:11.714Z,34.70
2019-04-25T19:14:02.277Z,34.70
2019-04-25T19:16:53.763Z,34.60
2019-04-25T19:19:45.641Z,34.90
2019-04-25T19:22:36.450Z,34.90
2019-04-25T19:25:26.891Z,34.90
2019-04-25T19:28:18.312Z,34.70
2019-04-25T19:31:09.505Z,34.80
2019-04-25T19:34:00.499Z,35.00
2019-04-25T19:36:51.217Z,35.00
2019-04-25T19:39:45.610Z,35.10
2019-04-25T19:42:41.101Z,35.10
2019-04-25T19:45:33.336Z,35.20
2019-04-25T19:48:25.471Z,35.40
2019-04-25T19:51:16.027Z,35.40
2019-04-25T19:54:07.527Z,35.60
2019-04-25T19:56:58.637Z,35.60
2019-04-25T19:59:49.420Z,35.70
2019-04-25T20:02:49.233Z,35.80
2019-04-25T20:05:48.313Z,36.00
2019-04-25T20:08:52.805Z,35.90
2019-04-25T20:11:47.129Z,36.00
2019-04-25T20:14:37.417Z,36.10
2019-04-25T20:17:27.783Z,36.10
2019-04-25T20:20:17.937Z,36.10
2019-04-25T20:23:08.911Z,36.10
2019-04-25T20:25:59.630Z,36.40
2019-04-25T20:28:51.244Z,36.50
2019-04-25T20:31:42.484Z,36.40
2019-04-25T20:34:33.179Z,36.50
2019-04-25T20:37:23.988Z,36.50
2019-04-25T20:40:15.101Z,36.70
2019-04-25T20:43:06.573Z,36.60
2019-04-25T20:45:56.913Z,37.00
2019-04-25T20:48:48.163Z,36.80
2019-04-25T20:51:39.415Z,36.90
2019-04-25T20:54:29.519Z,37.00
2019-04-25T20:57:19.944Z,37.10
2019-04-25T21:00:10.999Z,37.10
2019-04-25T21:03:03.437Z,37.10
2019-04-25T21:05:57.174Z,37.20
2019-04-25T21:08:47.399Z,37.20
2019-04-25T21:11:38.450Z,37.20
2019-04-25T21:14:50.693Z,37.30
2019-04-25T21:17:46.987Z,37.40
2019-04-25T21:20:37.516Z,37.50
2019-04-25T21:23:28.733Z,37.60
2019-04-25T21:26:20.209Z,37.70
2019-04-25T21:29:11.645Z,37.60
2019-04-25T21:32:02.215Z,37.60
2019-04-25T21:34:55.206Z,37.70
2019-04-25T21:37:45.845Z,37.70
2019-04-25T21:41:14.923Z,37.90
2019-04-25T21:44:07.501Z,37.90
2019-04-25T21:46:58.700Z,37.90
2019-04-25T21:49:49.325Z,38.00
2019-04-25T21:52:40.350Z,38.10
2019-04-25T21:55:31.918Z,38.10
2019-04-25T21:58:23.028Z,38.10
2019-04-25T22:01:18.921Z,38.20
2019-04-25T22:04:10.480Z,38.20
2019-04-25T22:07:01.089Z,38.40
2019-04-25T22:09:52.451Z,38.20
2019-04-25T22:12:44.092Z,38.30
2019-04-25T22:15:34.654Z,38.30
2019-04-25T22:18:25.115Z,38.40
2019-04-25T22:21:16.070Z,38.40
2019-04-25T22:24:11.178Z,38.60
2019-04-25T22:27:03.277Z,38.70
2019-04-25T22:29:58.736Z,38.70
2019-04-25T22:33:03.681Z,38.80
2019-04-25T22:36:00.676Z,38.90
2019-04-25T22:39:10.000Z,39.00
2019-04-25T22:42:02.858Z,38.90
2019-04-25T22:44:55.061Z,39.00
2019-04-25T22:47:46.057Z,39.10
2019-04-25T22:50:37.188Z,39.10
2019-04-25T22:53:27.938Z,39.10
2019-04-25T22:56:19.111Z,39.10
2019-04-25T22:59:11.061Z,39.20
2019-04-25T23:02:09.591Z,39.30
2019-04-25T23:05:15.030Z,39.30
2019-04-25T23:08:03.091Z,39.20
2019-04-25T23:10:58.053Z,39.40
2019-04-25T23:13:48.236Z,39.70
2019-04-25T23:16:39.748Z,40.00
2019-04-25T23:19:30.112Z,40.10
2019-04-25T23:22:20.747Z,40.20
2019-04-25T23:25:14.133Z,40.40
2019-04-25T23:28:13.993Z,40.30
2019-04-25T23:31:17.972Z,40.30
2019-04-25T23:34:09.070Z,40.40
2019-04-25T23:37:00.131Z,40.10
2019-04-25T23:39:51.726Z,40.60
2019-04-25T23:42:42.942Z,40.70
2019-04-25T23:45:34.238Z,40.70
2019-04-25T23:48:24.926Z,41.10
2019-04-25T23:51:15.439Z,40.50
2019-04-25T23:54:07.468Z,40.60
2019-04-25T23:56:58.925Z,40.60
2019-04-25T23:59:49.539Z,40.80
